Time;durP1;ratioP1;P1;durP2;ratioP2;P2;SDS_P1;SDS_P2;PMS_P1;PMS_P2;Temp;Humidity;BMP_temperature;BMP_pressure;BME280_temperature;BME280_humidity;BME280_pressure;Samples;Min_cycle;Max_cycle;Signal;HPM_P1;HPM_P2
2021/07/23 00:00:37;;;;;;;16.30;9.52;;;;;;;19.25;73.88;96802.41;5001543;28;20049;-64
2021/07/23 00:03:02;;;;;;;19.02;10.00;;;;;;;19.20;73.69;96798.13;5011670;28;20042;-65
2021/07/23 00:05:28;;;;;;;23.45;11.38;;;;;;;19.12;74.27;96793.09;4984918;28;20128;-64
2021/07/23 00:07:53;;;;;;;17.60;9.77;;;;;;;19.04;74.14;96795.97;5019102;28;20068;-64
2021/07/23 00:10:19;;;;;;;17.63;10.40;;;;;;;18.84;75.38;96795.91;5020105;28;20109;-64
2021/07/23 00:12:44;;;;;;;18.55;10.02;;;;;;;18.55;77.25;96792.72;5005140;28;20089;-64
2021/07/23 00:15:10;;;;;;;17.77;10.07;;;;;;;18.37;78.40;96789.41;4997344;28;20049;-64
2021/07/23 00:17:36;;;;;;;17.85;9.60;;;;;;;18.47;78.95;96792.00;4999803;28;20188;-63
2021/07/23 00:20:01;;;;;;;14.73;9.57;;;;;;;18.59;78.04;96798.22;5001426;28;20398;-65
2021/07/23 00:22:26;;;;;;;19.10;10.15;;;;;;;18.40;78.45;96800.44;4994467;28;20148;-66
2021/07/23 00:24:52;;;;;;;19.50;9.85;;;;;;;18.48;78.72;96792.81;5021077;28;20045;-66
2021/07/23 00:27:17;;;;;;;20.30;9.20;;;;;;;18.59;78.06;96798.22;5015637;28;20049;-64
2021/07/23 00:29:43;;;;;;;20.10;10.18;;;;;;;18.40;78.38;96794.09;5021119;28;20143;-64
2021/07/23 00:32:09;;;;;;;24.75;11.27;;;;;;;18.18;79.49;96790.81;5010755;28;20037;-63
2021/07/23 00:34:35;;;;;;;18.92;11.13;;;;;;;17.64;83.48;96794.16;4996457;28;20081;-63
2021/07/23 00:37:00;;;;;;;21.00;12.43;;;;;;;17.38;84.58;96786.09;5001087;28;20049;-64
2021/07/23 00:39:25;;;;;;;17.50;10.57;;;;;;;17.47;84.70;96793.91;4995616;28;20080;-63
2021/07/23 00:41:51;;;;;;;21.02;11.27;;;;;;;17.52;83.47;96792.66;5000952;28;20457;-63
2021/07/23 00:44:16;;;;;;;19.75;10.65;;;;;;;17.47;84.06;96793.13;4995637;28;20049;-64
2021/07/23 00:46:44;;;;;;;19.08;10.63;;;;;;;17.53;84.31;96783.19;5001172;28;20551;-65
2021/07/23 00:49:09;;;;;;;18.27;10.82;;;;;;;17.57;83.88;96778.38;4993811;28;20056;-63
2021/07/23 00:51:35;;;;;;;17.20;9.90;;;;;;;17.54;84.23;96776.47;5002278;28;20381;-66
2021/07/23 00:54:01;;;;;;;20.27;10.68;;;;;;;17.08;86.67;96770.13;5001435;28;20052;-64
2021/07/23 00:56:26;;;;;;;19.05;11.57;;;;;;;17.13;86.46;96769.69;4994116;28;20070;-65
2021/07/23 00:58:54;;;;;;;21.40;9.75;;;;;;;17.24;86.16;96769.59;5001080;28;20127;-64
2021/07/23 01:01:19;;;;;;;17.15;10.43;;;;;;;17.36;85.75;96777.41;4991818;28;20042;-65
2021/07/23 01:03:45;;;;;;;20.42;10.30;;;;;;;17.48;85.09;96769.78;5001909;28;20042;-64
2021/07/23 01:06:11;;;;;;;15.50;9.52;;;;;;;17.65;83.95;96760.50;4995487;28;20073;-65
2021/07/23 01:08:37;;;;;;;15.75;9.27;;;;;;;17.67;83.22;96760.88;4998396;28;20129;-65
2021/07/23 01:11:02;;;;;;;15.90;9.32;;;;;;;17.71;83.19;96763.63;5012808;28;20431;-65
2021/07/23 01:13:28;;;;;;;16.77;9.45;;;;;;;17.62;83.21;96757.78;5010764;28;20053;-64
2021/07/23 01:15:54;;;;;;;17.98;10.45;;;;;;;17.62;84.07;96766.09;5000892;28;20044;-63
2021/07/23 01:18:20;;;;;;;20.80;10.40;;;;;;;17.40;84.27;96766.31;5001816;28;20052;-63
2021/07/23 01:20:45;;;;;;;19.95;10.93;;;;;;;17.26;84.58;96767.22;5008449;28;20045;-63
2021/07/23 01:23:15;;;;;;;17.17;9.60;;;;;;;17.19;85.72;96768.06;5003806;28;20140;-63
2021/07/23 01:25:40;;;;;;;17.13;10.38;;;;;;;17.36;85.56;96765.56;5002791;28;20049;-64
2021/07/23 01:28:06;;;;;;;20.85;10.45;;;;;;;17.47;84.63;96760.69;4989968;28;20061;-64
2021/07/23 01:30:35;;;;;;;20.83;10.98;;;;;;;17.31;85.14;96763.22;4987967;28;20049;-62
2021/07/23 01:33:01;;;;;;;19.45;10.80;;;;;;;17.17;85.02;96767.69;5009499;28;20041;-64
2021/07/23 01:35:26;;;;;;;17.45;10.43;;;;;;;16.81;87.66;96767.94;5004996;28;20365;-64
2021/07/23 01:37:54;;;;;;;19.00;10.88;;;;;;;16.50;89.55;96768.94;5019041;28;20081;-64
2021/07/23 01:40:19;;;;;;;19.25;10.82;;;;;;;16.29;91.26;96772.59;5003783;28;20042;-64
2021/07/23 01:42:46;;;;;;;17.50;11.00;;;;;;;16.26;90.67;96771.44;5019547;28;20037;-64
2021/07/23 01:45:12;;;;;;;21.05;11.10;;;;;;;16.25;91.32;96769.84;5014782;28;20137;-64
2021/07/23 01:47:37;;;;;;;25.67;10.82;;;;;;;16.04;92.89;96768.78;5014848;28;20041;-64
2021/07/23 01:50:03;;;;;;;22.58;11.45;;;;;;;15.86;94.44;96766.09;4995088;28;20049;-66
2021/07/23 01:52:29;;;;;;;23.35;13.00;;;;;;;15.71;95.43;96769.25;4993272;28;20074;-65
2021/07/23 01:54:55;;;;;;;23.35;14.27;;;;;;;15.62;96.82;96770.44;5016059;28;20041;-65
2021/07/23 01:57:20;;;;;;;25.67;14.45;;;;;;;15.57;97.36;96770.06;4998034;28;20053;-64
2021/07/23 01:59:46;;;;;;;20.02;12.45;;;;;;;15.35;98.58;96772.09;5006271;28;20058;-64
2021/07/23 02:02:11;;;;;;;24.98;13.18;;;;;;;15.25;99.34;96768.13;5007433;28;20770;-64
2021/07/23 02:04:37;;;;;;;26.27;13.35;;;;;;;15.26;99.94;96766.97;5007046;28;20360;-63
2021/07/23 02:07:03;;;;;;;23.73;13.50;;;;;;;15.35;99.60;96770.09;5015830;28;20084;-64
2021/07/23 02:09:29;;;;;;;21.77;11.85;;;;;;;15.46;98.50;96767.31;4991014;28;20583;-64
2021/07/23 02:11:54;;;;;;;26.58;11.63;;;;;;;15.63;98.58;96774.00;5006248;28;20042;-64
2021/07/23 02:14:20;;;;;;;22.02;11.93;;;;;;;15.78;98.21;96775.56;5008705;28;20045;-63
2021/07/23 02:16:45;;;;;;;22.08;12.32;;;;;;;15.94;97.18;96764.06;5006257;28;20046;-64
2021/07/23 02:19:11;;;;;;;17.92;11.20;;;;;;;15.97;94.21;96776.28;5015848;28;20048;-63
2021/07/23 02:21:37;;;;;;;16.40;9.95;;;;;;;16.01;93.87;96764.03;5012668;28;20047;-64
2021/07/23 02:24:06;;;;;;;18.25;10.60;;;;;;;16.15;94.26;96762.41;5014993;28;20441;-64
2021/07/23 02:26:32;;;;;;;17.42;10.60;;;;;;;16.25;93.23;96770.63;5007091;28;20156;-64
2021/07/23 02:28:57;;;;;;;21.48;11.68;;;;;;;16.14;91.96;96766.38;5015254;28;20137;-64
2021/07/23 02:31:26;;;;;;;23.77;11.45;;;;;;;16.02;92.45;96764.81;5005688;28;20042;-64
2021/07/23 02:33:52;;;;;;;21.40;11.88;;;;;;;15.88;93.68;96775.91;5013416;28;20096;-64
2021/07/23 02:36:18;;;;;;;19.45;10.88;;;;;;;15.83;93.63;96771.63;5025605;23;20054;-62
2021/07/23 02:38:43;;;;;;;18.88;11.25;;;;;;;15.75;93.65;96767.28;5018027;28;20128;-62
2021/07/23 02:41:09;;;;;;;17.48;10.85;;;;;;;15.69;94.04;96769.66;5011152;28;20721;-64
2021/07/23 02:43:35;;;;;;;16.85;10.30;;;;;;;15.61;94.31;96771.66;5015404;28;20107;-61
2021/07/23 02:46:00;;;;;;;17.42;10.45;;;;;;;15.58;95.17;96766.91;5023348;28;20087;-64
2021/07/23 02:48:25;;;;;;;20.52;10.55;;;;;;;15.61;95.39;96765.31;5016362;28;20048;-62
2021/07/23 02:50:51;;;;;;;18.92;11.07;;;;;;;15.56;93.95;96761.00;5020472;28;20192;-64
2021/07/23 02:53:18;;;;;;;20.42;11.40;;;;;;;15.56;95.51;96766.53;5012549;28;20045;-63
2021/07/23 02:55:44;;;;;;;20.20;10.70;;;;;;;15.55;94.65;96762.19;5027601;28;20101;-62
2021/07/23 02:58:10;;;;;;;22.00;11.48;;;;;;;15.46;93.59;96765.34;5022732;28;20052;-61
2021/07/23 03:00:35;;;;;;;17.90;11.38;;;;;;;15.46;95.20;96759.81;5021068;28;20053;-61
2021/07/23 03:03:04;;;;;;;16.55;10.35;;;;;;;15.61;96.18;96760.59;5004287;28;20066;-62
2021/07/23 03:05:30;;;;;;;20.13;11.73;;;;;;;15.54;94.88;96762.56;5000234;28;20046;-61
2021/07/23 03:07:55;;;;;;;20.10;10.77;;;;;;;15.53;95.19;96763.78;5001768;28;20053;-63
2021/07/23 03:10:21;;;;;;;16.52;10.63;;;;;;;15.28;96.55;96756.31;5008192;28;20425;-60
2021/07/23 03:12:46;;;;;;;20.38;11.30;;;;;;;15.30;96.53;96753.94;5011358;28;20073;-63
2021/07/23 03:15:12;;;;;;;18.35;11.05;;;;;;;15.21;97.10;96754.34;5017231;28;20049;-62
2021/07/23 03:17:38;;;;;;;21.98;12.48;;;;;;;15.00;98.99;96746.88;5011808;28;20041;-62
2021/07/23 03:20:04;;;;;;;21.10;11.65;;;;;;;15.12;99.25;96748.44;5018764;28;20119;-59
2021/07/23 03:22:30;;;;;;;20.38;12.38;;;;;;;15.21;99.07;96748.81;5018393;28;20048;-63
2021/07/23 03:24:56;;;;;;;19.88;11.52;;;;;;;15.12;97.96;96753.97;5008910;28;20034;-65
2021/07/23 03:27:22;;;;;;;22.15;12.43;;;;;;;15.02;98.69;96754.78;5019419;28;20046;-63
2021/07/23 03:29:47;;;;;;;23.05;12.13;;;;;;;14.92;98.34;96748.06;5010115;28;20072;-62
2021/07/23 03:32:13;;;;;;;19.50;11.07;;;;;;;14.98;99.48;96740.19;5007769;28;20038;-64
2021/07/23 03:34:38;;;;;;;22.30;11.65;;;;;;;15.13;99.49;96747.28;5012272;28;20050;-62
2021/07/23 03:37:04;;;;;;;20.33;11.63;;;;;;;15.24;98.66;96739.75;5004605;28;20462;-61
2021/07/23 03:39:30;;;;;;;20.13;11.13;;;;;;;15.26;97.88;96748.44;5019498;28;20057;-63
2021/07/23 03:41:55;;;;;;;17.20;10.23;;;;;;;15.31;97.41;96752.00;5015868;28;20390;-62
2021/07/23 03:44:21;;;;;;;18.67;11.23;;;;;;;15.31;96.88;96746.47;5012645;28;20567;-63
2021/07/23 03:46:46;;;;;;;19.30;12.48;;;;;;;15.21;95.93;96757.09;5021419;28;20049;-61
2021/07/23 03:49:12;;;;;;;18.42;10.80;;;;;;;15.21;96.41;96748.03;5008285;28;20499;-63
2021/07/23 03:51:38;;;;;;;19.58;11.57;;;;;;;15.27;96.66;96752.00;5002653;28;20042;-61
2021/07/23 03:54:04;;;;;;;18.75;10.82;;;;;;;15.31;96.28;96750.00;4999245;28;20506;-65
2021/07/23 03:56:30;;;;;;;20.00;12.43;;;;;;;15.07;96.82;96748.84;5000768;28;20091;-61
2021/07/23 03:58:55;;;;;;;17.98;11.23;;;;;;;15.02;97.32;96747.28;5025692;28;20043;-62
2021/07/23 04:01:21;;;;;;;21.27;10.73;;;;;;;15.20;97.41;96752.00;5017787;28;20064;-62
2021/07/23 04:03:46;;;;;;;23.40;11.82;;;;;;;15.29;96.41;96753.16;5022712;28;20057;-62
2021/07/23 04:06:12;;;;;;;17.77;10.40;;;;;;;15.50;95.64;96751.53;5004854;28;20046;-61
2021/07/23 04:08:39;;;;;;;19.20;11.07;;;;;;;15.59;95.00;96749.19;5001887;28;20052;-63
2021/07/23 04:11:05;;;;;;;19.05;10.65;;;;;;;15.68;94.54;96755.06;5006218;28;20104;-62
2021/07/23 04:13:30;;;;;;;16.20;10.55;;;;;;;15.65;93.16;96753.09;5014638;28;20037;-63
2021/07/23 04:15:56;;;;;;;22.98;11.80;;;;;;;15.54;93.87;96755.09;5014479;28;20153;-61
2021/07/23 04:18:22;;;;;;;17.42;10.32;;;;;;;15.62;94.18;96753.88;5007905;28;20598;-64
2021/07/23 04:20:47;;;;;;;23.33;11.77;;;;;;;15.89;93.59;96761.72;5019899;28;20050;-62
2021/07/23 04:23:12;;;;;;;19.15;11.13;;;;;;;16.14;92.00;96756.09;5004188;28;20045;-62
2021/07/23 04:25:38;;;;;;;20.35;11.60;;;;;;;16.35;91.14;96754.41;5002224;28;20041;-62
2021/07/23 04:28:07;;;;;;;19.40;10.82;;;;;;;16.48;90.83;96757.50;5006301;28;20033;-60
2021/07/23 04:30:33;;;;;;;18.63;10.82;;;;;;;16.71;89.49;96754.19;5002158;28;20049;-62
2021/07/23 04:32:58;;;;;;;18.98;10.80;;;;;;;16.91;88.71;96760.00;5002922;28;20455;-62
2021/07/23 04:35:24;;;;;;;20.45;10.73;;;;;;;17.06;87.20;96768.97;5015259;28;20045;-63
2021/07/23 04:37:49;;;;;;;19.23;11.75;;;;;;;17.20;86.52;96768.84;5016094;28;20045;-63
2021/07/23 04:40:14;;;;;;;22.27;11.43;;;;;;;17.08;85.33;96769.34;5003810;28;20106;-62
2021/07/23 04:42:40;;;;;;;16.25;10.38;;;;;;;16.84;87.94;96768.38;5019484;28;20046;-62
2021/07/23 04:45:06;;;;;;;17.35;10.15;;;;;;;17.11;87.57;96774.06;5015795;28;20496;-62
2021/07/23 04:47:32;;;;;;;18.13;10.68;;;;;;;17.47;85.58;96773.75;5003691;28;20048;-62
2021/07/23 04:49:57;;;;;;;19.48;11.38;;;;;;;17.19;85.98;96768.06;5022066;28;20519;-62
2021/07/23 04:52:23;;;;;;;22.77;11.60;;;;;;;16.73;88.08;96773.94;5024610;28;20418;-62
2021/07/23 04:54:48;;;;;;;18.73;11.75;;;;;;;16.62;89.97;96771.25;5013181;28;20042;-63
2021/07/23 04:57:17;;;;;;;21.17;11.88;;;;;;;16.52;90.60;96769.31;5015481;28;20057;-63
2021/07/23 04:59:42;;;;;;;22.80;12.95;;;;;;;16.38;91.77;96775.72;5020249;28;20498;-63
2021/07/23 05:02:07;;;;;;;21.92;12.50;;;;;;;16.28;92.72;96773.78;5008636;28;20065;-64
2021/07/23 05:04:35;;;;;;;20.40;12.10;;;;;;;16.36;92.73;96772.56;5008605;28;20072;-63
2021/07/23 05:07:01;;;;;;;18.70;11.57;;;;;;;16.86;91.33;96772.28;5007653;28;20034;-63
2021/07/23 05:09:27;;;;;;;22.17;10.75;;;;;;;17.73;86.91;96772.28;5002974;28;20771;-63
2021/07/23 05:11:52;;;;;;;18.08;10.63;;;;;;;18.83;80.60;96768.56;5011657;28;20052;-63
2021/07/23 05:14:17;;;;;;;18.77;10.93;;;;;;;18.80;78.05;96767.41;5006324;28;20034;-62
2021/07/23 05:16:43;;;;;;;19.95;11.55;;;;;;;18.14;80.96;96768.69;5016868;28;20049;-63
2021/07/23 05:19:11;;;;;;;20.88;10.98;;;;;;;17.49;84.37;96774.13;5004263;28;20042;-62
2021/07/23 05:21:37;;;;;;;20.02;10.93;;;;;;;18.00;83.90;96768.88;5006974;28;20041;-62
2021/07/23 05:24:04;;;;;;;19.48;9.73;;;;;;;19.23;77.63;96765.94;4993455;28;20124;-62
2021/07/23 05:26:35;;;;;;;19.23;11.02;;;;;;;20.37;73.49;96776.91;5000739;28;20065;-62
2021/07/23 05:29:01;;;;;;;15.35;9.48;;;;;;;21.16;68.49;96769.59;5012814;28;20394;-62
2021/07/23 05:31:27;;;;;;;17.02;10.23;;;;;;;22.37;64.63;96761.22;5002979;28;20046;-62
2021/07/23 05:33:53;;;;;;;17.70;9.70;;;;;;;23.54;58.23;96765.56;5007805;28;20100;-62
2021/07/23 05:36:19;;;;;;;21.23;10.48;;;;;;;24.24;56.01;96758.66;5019502;28;20061;-62
2021/07/23 05:38:44;;;;;;;16.77;9.07;;;;;;;25.33;53.04;96749.69;5030514;28;20052;-62
2021/07/23 05:41:09;;;;;;;17.95;9.88;;;;;;;25.00;53.65;96762.19;5019562;28;20108;-62
2021/07/23 05:43:35;;;;;;;14.85;9.73;;;;;;;24.61;54.47;96761.72;5018250;28;20045;-63
2021/07/23 05:46:05;;;;;;;17.40;9.90;;;;;;;25.52;52.26;96756.88;5011995;28;20073;-62
2021/07/23 05:48:30;;;;;;;15.25;9.98;;;;;;;25.34;52.76;96768.06;5021635;28;20467;-62
2021/07/23 05:50:56;;;;;;;15.60;9.77;;;;;;;25.61;51.79;96763.75;5014263;28;20049;-62
2021/07/23 05:53:21;;;;;;;16.67;9.75;;;;;;;25.96;50.82;96760.66;5002137;28;20905;-62
2021/07/23 05:55:46;;;;;;;14.48;9.15;;;;;;;25.80;51.59;96764.53;5004617;28;20050;-62
2021/07/23 05:58:12;;;;;;;19.85;10.35;;;;;;;25.19;52.08;96765.81;5014523;28;20052;-64
2021/07/23 06:00:38;;;;;;;18.30;9.80;;;;;;;23.99;56.74;96772.81;5011556;28;20128;-64
2021/07/23 06:03:04;;;;;;;18.80;9.93;;;;;;;23.34;58.58;96769.41;4989733;28;20033;-63
2021/07/23 06:05:29;;;;;;;19.23;10.40;;;;;;;24.34;57.08;96767.13;5015340;28;20042;-63
2021/07/23 06:07:55;;;;;;;14.52;9.45;;;;;;;25.73;51.99;96774.03;5021773;28;20049;-64
2021/07/23 06:10:20;;;;;;;19.17;9.90;;;;;;;25.69;52.01;96781.81;5008207;28;20402;-62
2021/07/23 06:12:45;;;;;;;18.48;10.68;;;;;;;23.52;58.89;96771.59;5018011;28;20052;-62
2021/07/23 06:15:11;;;;;;;18.13;10.32;;;;;;;22.28;64.87;96781.41;5002499;28;20042;-61
2021/07/23 06:17:36;;;;;;;19.33;11.38;;;;;;;22.58;63.86;96776.56;5019525;28;20056;-62
2021/07/23 06:20:04;;;;;;;14.48;9.23;;;;;;;23.66;60.49;96770.34;5016531;28;20069;-62
2021/07/23 06:22:29;;;;;;;20.95;11.18;;;;;;;24.01;58.69;96776.69;5004119;28;20045;-64
2021/07/23 06:24:56;;;;;;;18.60;9.45;;;;;;;26.07;53.25;96772.19;5007913;28;20129;-63
2021/07/23 06:27:22;;;;;;;13.57;9.43;;;;;;;25.79;53.55;96769.38;5000982;28;20627;-62
2021/07/23 06:29:48;;;;;;;16.80;10.10;;;;;;;25.16;55.53;96780.75;5022781;28;20042;-64
2021/07/23 06:32:14;;;;;;;17.77;10.05;;;;;;;26.91;49.77;96767.19;5002869;28;20038;-64
2021/07/23 06:34:39;;;;;;;15.13;9.98;;;;;;;27.97;47.67;96763.13;5012623;28;20041;-64
2021/07/23 06:37:05;;;;;;;15.20;9.75;;;;;;;27.55;48.63;96764.06;5008167;28;20046;-61
2021/07/23 06:39:30;;;;;;;16.10;9.40;;;;;;;28.65;45.57;96767.22;5005346;28;20176;-64
2021/07/23 06:41:55;;;;;;;15.45;8.90;;;;;;;29.28;44.57;96774.59;5013476;28;20045;-63
2021/07/23 06:44:22;;;;;;;17.48;8.88;;;;;;;29.68;43.56;96768.22;4996983;28;20046;-63
2021/07/23 06:46:47;;;;;;;18.65;9.05;;;;;;;31.03;40.31;96768.84;5004080;28;20111;-63
2021/07/23 06:49:13;;;;;;;18.23;8.80;;;;;;;30.40;41.50;96766.00;4998970;28;20034;-63
2021/07/23 06:51:38;;;;;;;14.10;8.98;;;;;;;30.56;40.56;96768.19;5020007;28;20294;-63
2021/07/23 06:54:04;;;;;;;14.15;9.02;;;;;;;30.65;40.85;96761.59;4999832;28;20371;-61
2021/07/23 06:56:29;;;;;;;14.40;9.68;;;;;;;30.39;40.94;96768.03;5008255;28;20042;-64
2021/07/23 06:58:54;;;;;;;16.52;8.95;;;;;;;29.83;42.08;96773.81;5016422;28;20038;-62
2021/07/23 07:01:20;;;;;;;22.98;10.25;;;;;;;29.85;41.91;96768.44;5016691;28;20094;-62
2021/07/23 07:03:45;;;;;;;19.80;9.77;;;;;;;29.48;42.69;96763.34;5013186;28;20096;-61
2021/07/23 07:06:11;;;;;;;18.15;10.63;;;;;;;30.82;40.50;96767.38;5010505;28;20059;-63
2021/07/23 07:08:36;;;;;;;17.90;9.38;;;;;;;30.74;40.28;96764.25;5005810;28;20283;-64
2021/07/23 07:11:02;;;;;;;16.40;10.15;;;;;;;30.74;40.08;96766.28;5009317;28;20120;-64
2021/07/23 07:13:27;;;;;;;15.27;8.65;;;;;;;30.53;40.90;96771.25;5018023;28;20045;-64
2021/07/23 07:15:53;;;;;;;13.50;8.98;;;;;;;31.47;39.36;96766.03;4990523;28;20041;-64
2021/07/23 07:18:18;;;;;;;14.63;9.40;;;;;;;30.48;41.26;96767.09;5016289;28;20128;-62
2021/07/23 07:20:43;;;;;;;14.65;9.48;;;;;;;30.14;42.07;96775.19;5014147;28;20050;-62
2021/07/23 07:23:09;;;;;;;16.35;9.30;;;;;;;30.57;40.66;96769.72;5008238;28;20041;-65
2021/07/23 07:25:34;;;;;;;14.05;9.93;;;;;;;30.44;40.70;96770.13;5021145;28;20045;-61
2021/07/23 07:28:00;;;;;;;17.30;9.70;;;;;;;30.57;40.49;96766.13;5003044;28;20050;-64
2021/07/23 07:30:26;;;;;;;17.00;10.10;;;;;;;30.15;42.32;96768.28;4992220;28;20693;-63
2021/07/23 07:32:51;;;;;;;14.40;9.48;;;;;;;30.80;41.23;96765.06;5005318;28;20038;-64
2021/07/23 07:35:17;;;;;;;18.40;10.18;;;;;;;30.69;40.84;96764.97;5026790;28;20060;-63
2021/07/23 07:37:42;;;;;;;17.50;9.48;;;;;;;31.44;39.29;96757.28;5029542;28;20057;-63
2021/07/23 07:40:08;;;;;;;15.85;9.45;;;;;;;31.62;39.00;96761.78;5017732;28;20390;-62
2021/07/23 07:42:34;;;;;;;17.80;10.02;;;;;;;30.72;40.28;96766.00;5015944;28;20054;-63
2021/07/23 07:45:00;;;;;;;21.23;12.13;;;;;;;30.38;41.64;96757.22;5020699;28;20271;-62
2021/07/23 07:47:26;;;;;;;15.80;9.85;;;;;;;30.88;40.58;96754.84;5008947;28;20044;-62
2021/07/23 07:49:51;;;;;;;18.40;10.65;;;;;;;29.16;44.40;96762.38;5011708;28;20049;-64
2021/07/23 07:52:18;;;;;;;19.50;10.63;;;;;;;29.71;43.42;96764.41;5013408;28;20077;-62
2021/07/23 07:54:46;;;;;;;15.95;10.48;;;;;;;29.97;42.54;96760.88;5007542;28;20104;-62
2021/07/23 07:57:12;;;;;;;18.38;11.18;;;;;;;29.46;43.84;96762.28;5019825;28;20135;-63
2021/07/23 07:59:38;;;;;;;18.08;11.30;;;;;;;28.97;45.27;96753.34;5033930;28;20057;-64
2021/07/23 08:02:11;;;;;;;16.38;9.43;;;;;;;28.99;45.71;96745.16;5023340;28;20053;-63
2021/07/23 08:04:37;;;;;;;18.27;11.68;;;;;;;29.49;44.47;96755.66;5019034;28;20045;-64
2021/07/23 08:07:09;;;;;;;18.90;11.18;;;;;;;29.26;44.90;96744.06;5025397;28;20441;-64
2021/07/23 08:09:47;;;;;;;16.13;10.68;;;;;;;28.76;46.53;96755.34;5027082;28;20073;-64
2021/07/23 08:12:13;;;;;;;18.08;11.15;;;;;;;28.97;45.71;96748.50;5016597;28;20063;-64
2021/07/23 08:14:38;;;;;;;18.95;12.48;;;;;;;29.89;43.66;96740.78;5011737;28;20045;-64
2021/07/23 08:17:04;;;;;;;17.55;11.23;;;;;;;30.18;42.44;96736.22;4999371;28;20125;-63
2021/07/23 08:19:30;;;;;;;16.88;9.95;;;;;;;30.13;43.06;96741.81;5017583;28;20049;-64
2021/07/23 08:21:58;;;;;;;15.20;9.90;;;;;;;29.49;43.20;96741.53;5003631;28;20099;-62
2021/07/23 08:24:23;;;;;;;19.55;11.10;;;;;;;28.32;47.23;96736.38;5014194;28;20222;-63
2021/07/23 08:26:49;;;;;;;18.10;10.93;;;;;;;29.83;44.54;96739.16;5021065;28;20064;-63
2021/07/23 08:29:14;;;;;;;17.80;10.85;;;;;;;29.70;44.30;96739.50;4986688;28;20037;-63
2021/07/23 08:31:39;;;;;;;18.75;10.98;;;;;;;29.82;43.42;96734.78;5017765;28;20192;-63
2021/07/23 08:34:05;;;;;;;17.98;11.77;;;;;;;28.45;45.92;96742.50;5015781;28;20042;-63
2021/07/23 08:36:30;;;;;;;18.80;10.05;;;;;;;29.77;43.37;96735.50;5020153;28;20174;-63
2021/07/23 08:38:56;;;;;;;16.50;10.95;;;;;;;29.43;44.14;96735.84;5020186;28;20052;-64
2021/07/23 08:41:21;;;;;;;22.50;11.07;;;;;;;29.25;45.85;96733.28;5013678;28;29154;-64
2021/07/23 08:43:47;;;;;;;19.73;11.00;;;;;;;29.34;45.44;96730.31;5018600;28;20045;-62
2021/07/23 08:46:14;;;;;;;16.63;10.45;;;;;;;29.71;44.42;96732.56;5013695;28;20037;-64
2021/07/23 08:48:39;;;;;;;19.83;10.93;;;;;;;29.51;44.36;96733.34;5020838;28;20060;-64
2021/07/23 08:51:05;;;;;;;18.27;11.40;;;;;;;29.42;44.27;96728.63;5016260;28;20041;-62
2021/07/23 08:53:30;;;;;;;19.17;11.32;;;;;;;29.82;43.65;96729.13;5022163;28;20406;-63
2021/07/23 08:55:55;;;;;;;15.70;10.68;;;;;;;29.72;43.91;96734.13;5017183;28;20041;-65
2021/07/23 08:58:21;;;;;;;19.00;11.13;;;;;;;29.29;44.01;96731.03;5013202;28;20859;-63
2021/07/23 09:00:46;;;;;;;18.75;11.07;;;;;;;28.52;45.88;96728.03;5057478;22;20083;-63
2021/07/23 09:03:12;;;;;;;16.55;11.25;;;;;;;29.16;44.82;96734.19;5040924;28;20041;-65
2021/07/23 09:05:41;;;;;;;16.17;9.45;;;;;;;29.58;44.72;96729.34;5046201;28;20041;-65
2021/07/23 09:08:07;;;;;;;19.05;10.50;;;;;;;29.77;44.67;96727.81;5038270;28;20080;-63
2021/07/23 09:10:32;;;;;;;21.27;10.80;;;;;;;30.19;43.08;96728.50;5054160;28;20429;-64
2021/07/23 09:13:02;;;;;;;20.05;10.70;;;;;;;30.18;42.92;96726.94;5057108;28;20287;-65
2021/07/23 09:15:43;;;;;;;16.80;10.23;;;;;;;29.52;43.95;96726.47;5053627;28;20044;-64
2021/07/23 09:18:23;;;;;;;14.98;9.48;;;;;;;30.41;42.64;96719.50;5047611;28;20048;-64
2021/07/23 09:21:09;;;;;;;14.45;9.68;;;;;;;30.79;41.04;96723.94;5054769;28;20123;-65
2021/07/23 09:23:37;;;;;;;17.33;10.93;;;;;;;30.80;40.87;96716.22;5052511;28;20056;-65
2021/07/23 09:26:11;;;;;;;16.05;9.77;;;;;;;30.50;41.38;96722.16;5052587;28;20040;-62
2021/07/23 09:28:38;;;;;;;19.95;12.38;;;;;;;29.63;43.05;96723.78;5057616;28;20036;-64
2021/07/23 09:31:10;;;;;;;16.55;10.52;;;;;;;29.96;44.00;96719.78;5049849;28;20381;-63
2021/07/23 09:33:39;;;;;;;17.88;10.57;;;;;;;30.23;42.42;96718.56;5056488;28;20048;-65
2021/07/23 09:36:06;;;;;;;16.90;10.33;;;;;;;29.76;43.78;96714.19;5040937;28;20040;-66
2021/07/23 09:38:39;;;;;;;21.83;9.68;;;;;;;29.32;44.43;96710.31;5057195;28;20051;-63
2021/07/23 09:41:08;;;;;;;19.83;10.73;;;;;;;29.25;44.98;96711.50;5052998;28;20044;-64
2021/07/23 09:43:35;;;;;;;16.63;11.05;;;;;;;29.53;44.66;96700.56;5057578;28;20051;-64
2021/07/23 09:46:16;;;;;;;19.45;10.85;;;;;;;29.75;43.92;96702.13;5055722;28;20036;-64
2021/07/23 09:48:42;;;;;;;21.80;10.90;;;;;;;30.19;43.32;96700.28;5054301;28;20067;-63
2021/07/23 09:51:09;;;;;;;18.55;11.48;;;;;;;29.76;43.61;96697.25;5052108;28;20072;-63
2021/07/23 09:53:35;;;;;;;21.35;11.10;;;;;;;30.03;43.06;96691.13;5057359;28;20119;-64
2021/07/23 09:56:05;;;;;;;15.43;10.48;;;;;;;29.91;44.26;96686.66;5057778;28;20139;-64
2021/07/23 09:58:35;;;;;;;16.58;9.70;;;;;;;30.11;43.55;96675.31;5051337;28;20531;-65
2021/07/23 10:01:01;;;;;;;22.70;11.48;;;;;;;29.84;43.83;96679.41;5056812;28;20561;-64
2021/07/23 10:03:27;;;;;;;17.40;11.18;;;;;;;30.18;43.51;96676.13;5051795;28;20131;-64
2021/07/23 10:06:03;;;;;;;17.08;9.55;;;;;;;29.77;44.50;96670.59;5057699;28;20041;-64
2021/07/23 10:08:47;;;;;;;20.80;10.30;;;;;;;29.81;44.32;96669.09;5052746;28;20080;-64
2021/07/23 10:11:17;;;;;;;17.55;10.35;;;;;;;29.60;45.47;96661.91;5049645;28;20493;-65
2021/07/23 10:13:43;;;;;;;19.17;10.68;;;;;;;29.70;44.70;96663.31;5056270;28;20106;-62
2021/07/23 10:16:09;;;;;;;17.73;10.68;;;;;;;29.92;44.58;96659.97;5053142;28;20051;-64
2021/07/23 10:18:35;;;;;;;19.20;11.70;;;;;;;30.01;44.72;96656.19;5059190;28;20069;-63
2021/07/23 10:21:05;;;;;;;18.73;10.82;;;;;;;29.90;45.13;96648.41;5059078;28;20052;-63
2021/07/23 10:23:33;;;;;;;17.50;10.52;;;;;;;29.52;46.26;96639.75;5058573;28;20136;-65
2021/07/23 10:26:00;;;;;;;21.00;11.30;;;;;;;29.03;47.13;96646.28;5055870;28;20366;-64
2021/07/23 10:28:52;;;;;;;21.05;11.75;;;;;;;29.30;45.82;96639.50;5047326;28;20140;-64
2021/07/23 10:31:17;;;;;;;17.63;11.05;;;;;;;29.04;46.96;96630.94;5051042;28;20055;-62
2021/07/23 10:33:51;;;;;;;20.52;10.55;;;;;;;28.95;46.84;96624.16;5056673;28;20393;-62
2021/07/23 10:36:31;;;;;;;17.27;10.80;;;;;;;29.22;47.53;96624.28;5053698;28;20127;-62
2021/07/23 10:39:06;;;;;;;17.85;10.98;;;;;;;29.62;46.32;96619.84;5055857;28;20044;-64
2021/07/23 10:41:36;;;;;;;15.65;10.45;;;;;;;29.56;45.59;96619.78;5057436;28;20036;-63
2021/07/23 10:44:03;;;;;;;23.95;10.82;;;;;;;29.56;45.48;96608.50;5057560;28;20422;-63
2021/07/23 10:46:47;;;;;;;15.30;10.30;;;;;;;29.78;45.76;96607.97;5060010;28;20037;-63
2021/07/23 10:49:30;;;;;;;19.65;10.25;;;;;;;29.43;45.49;96608.88;5049183;28;20037;-65
2021/07/23 10:51:58;;;;;;;17.48;11.13;;;;;;;28.22;48.80;96611.81;5059637;28;20056;-62
2021/07/23 10:54:45;;;;;;;18.80;11.27;;;;;;;28.57;48.08;96600.59;5055629;28;20337;-63
2021/07/23 10:57:11;;;;;;;16.08;9.48;;;;;;;29.74;45.89;96604.59;5056330;28;20094;-64
2021/07/23 10:59:40;;;;;;;18.38;10.05;;;;;;;29.34;47.02;96597.75;5060219;28;20068;-63
2021/07/23 11:02:13;;;;;;;16.58;10.73;;;;;;;29.18;47.39;96593.47;5053149;28;20040;-63
2021/07/23 11:04:39;;;;;;;17.45;11.05;;;;;;;28.97;47.78;96596.28;5056560;28;20520;-62
2021/07/23 11:07:06;;;;;;;18.55;10.80;;;;;;;28.81;48.43;96596.84;5051859;28;20135;-64
2021/07/23 11:09:34;;;;;;;16.45;10.85;;;;;;;28.45;48.53;96598.06;5060582;28;20047;-63
2021/07/23 11:12:22;;;;;;;18.17;10.60;;;;;;;28.32;50.28;96592.75;5060767;28;20132;-63
2021/07/23 11:14:55;;;;;;;21.00;10.57;;;;;;;28.56;49.17;96589.81;5059226;28;20056;-64
2021/07/23 11:17:21;;;;;;;18.95;10.07;;;;;;;28.08;50.70;96585.22;5053847;28;20033;-64